Tropical Cyclones
[Index]
Main Index Home Page Stock Weather Photos Extreme Storms Discussion Storm News and Storm Chasing Reports Tropical Cyclones / Hurricanes / Typhoons Weather Data and Links Wild Fires / Bushfires Weather Observation Techniques Weather Picture Catalogue Tornado Pictures and Reports Stock Video Footage and DVDs for sale
Season 1987-1988 Tropical Cyclone CALIDERO Track Map
Season 1987-1988 Summaries: [BoM-AU] [JTWC-AU] [JTWC-SIO] [JTWC-SPAC] [JTWC-SH]
<<- Previous TC | JTWC 1987-1988 Season | Next TC ->>

click for intensity scale information  Lat/long Grid: Show Hide

 Date Labels: Show Hide

Joint Typhoon Warning Centre Cyclone Data

Name: CALIDERO

11 Jan 1988 18:00 UTC to 18 Jan 1988 18:00 UTC

    date/time    lat    long     hPa   cat  kts
1988-01-11 18   10.3    58.8                  20          
1988-01-12 00   11.2    58.0                  20          
1988-01-12 06   12.0    57.1                  25          
1988-01-12 12   12.4    56.1                  25          
1988-01-12 18   12.6    55.3                  25          
1988-01-13 00   12.8    54.8                  30          
1988-01-13 06   13.0    54.4                  35          
1988-01-13 12   13.3    53.8                  35          
1988-01-13 18   13.8    53.2            1     40          
1988-01-14 00   14.4    52.3            1     45          
1988-01-14 06   14.9    51.6            2     55          
1988-01-14 12   15.6    50.9            2     55          
1988-01-14 18   15.9    50.5            2     60          
1988-01-15 00   16.3    50.2            2     65          
1988-01-15 06   16.7    49.7            1     50          
1988-01-15 12   17.1    49.3            1     40          
1988-01-15 18   17.5    48.8                  30          
1988-01-16 00   18.0    48.2                  25          
1988-01-16 06   18.3    47.5                  25          
1988-01-16 12   18.6    46.7                  25          
1988-01-16 18   18.9    45.9                  25          
1988-01-17 00   19.3    45.2                  25          
1988-01-17 06   20.0    44.5                  25          
1988-01-17 12   20.9    44.1                  25          
1988-01-17 18   21.5    44.1                  25          
1988-01-18 00   21.8    43.9                  25          
1988-01-18 06   22.4    43.6                  25          
1988-01-18 12   22.9    43.2                  25          
1988-01-18 18   23.3    42.8                  25          
Winds are 1-min average.

Tropical cyclone tracks developed by Michael Bath using data from the Joint Typhoon Warning Centre Best Tracks and Google Maps.


[Australian Severe Weather index] [Copyright Notice] [Email Contacts] [Search This Site] [Privacy Policy]
Document: tropical_cyclone_calidero.htm Updated: 18 September 2016